sensor_id;sensor_type;location;lat;lon;timestamp;P1;durP1;ratioP1;P2;durP2;ratioP2
76155;SDS011;64906;51.290;7.348;2023-11-19T00:02:08;5.50;;;2.80;;
76155;SDS011;64906;51.290;7.348;2023-11-19T00:04:36;5.65;;;3.17;;
76155;SDS011;64906;51.290;7.348;2023-11-19T00:07:04;4.43;;;2.63;;
76155;SDS011;64906;51.290;7.348;2023-11-19T00:09:31;5.63;;;3.15;;
76155;SDS011;64906;51.290;7.348;2023-11-19T00:11:57;6.50;;;2.90;;
76155;SDS011;64906;51.290;7.348;2023-11-19T00:14:22;4.45;;;2.58;;
76155;SDS011;64906;51.290;7.348;2023-11-19T00:16:49;5.15;;;2.70;;
76155;SDS011;64906;51.290;7.348;2023-11-19T00:19:16;5.25;;;2.92;;
76155;SDS011;64906;51.290;7.348;2023-11-19T00:21:41;4.90;;;2.88;;
76155;SDS011;64906;51.290;7.348;2023-11-19T00:24:07;5.70;;;3.03;;
76155;SDS011;64906;51.290;7.348;2023-11-19T00:26:33;5.55;;;2.90;;
76155;SDS011;64906;51.290;7.348;2023-11-19T00:28:59;4.70;;;2.70;;
76155;SDS011;64906;51.290;7.348;2023-11-19T00:31:24;4.38;;;2.42;;
76155;SDS011;64906;51.290;7.348;2023-11-19T00:33:52;5.00;;;2.90;;
76155;SDS011;64906;51.290;7.348;2023-11-19T00:36:18;5.13;;;2.83;;
76155;SDS011;64906;51.290;7.348;2023-11-19T00:38:43;4.72;;;2.67;;
76155;SDS011;64906;51.290;7.348;2023-11-19T00:41:09;5.90;;;2.90;;
76155;SDS011;64906;51.290;7.348;2023-11-19T00:43:35;5.07;;;2.72;;
76155;SDS011;64906;51.290;7.348;2023-11-19T00:46:00;5.18;;;2.80;;
76155;SDS011;64906;51.290;7.348;2023-11-19T00:48:26;4.73;;;2.53;;
76155;SDS011;64906;51.290;7.348;2023-11-19T00:50:53;4.82;;;2.70;;
76155;SDS011;64906;51.290;7.348;2023-11-19T00:53:18;4.60;;;2.70;;
76155;SDS011;64906;51.290;7.348;2023-11-19T00:55:43;4.70;;;2.43;;
76155;SDS011;64906;51.290;7.348;2023-11-19T00:58:08;4.60;;;2.70;;
76155;SDS011;64906;51.290;7.348;2023-11-19T01:00:34;4.67;;;2.63;;
76155;SDS011;64906;51.290;7.348;2023-11-19T01:03:00;4.18;;;2.20;;
76155;SDS011;64906;51.290;7.348;2023-11-19T01:05:25;4.85;;;2.70;;
76155;SDS011;64906;51.290;7.348;2023-11-19T01:07:51;4.70;;;2.60;;
76155;SDS011;64906;51.290;7.348;2023-11-19T01:10:18;4.95;;;2.63;;
76155;SDS011;64906;51.290;7.348;2023-11-19T01:12:43;4.67;;;2.63;;
76155;SDS011;64906;51.290;7.348;2023-11-19T01:15:09;4.75;;;2.97;;
76155;SDS011;64906;51.290;7.348;2023-11-19T01:17:36;5.00;;;2.58;;
76155;SDS011;64906;51.290;7.348;2023-11-19T01:20:02;4.72;;;2.50;;
76155;SDS011;64906;51.290;7.348;2023-11-19T01:22:30;4.25;;;2.25;;
76155;SDS011;64906;51.290;7.348;2023-11-19T01:24:56;4.50;;;2.50;;
76155;SDS011;64906;51.290;7.348;2023-11-19T01:27:23;5.07;;;2.55;;
76155;SDS011;64906;51.290;7.348;2023-11-19T01:29:48;4.18;;;2.33;;
76155;SDS011;64906;51.290;7.348;2023-11-19T01:32:14;4.70;;;2.60;;
76155;SDS011;64906;51.290;7.348;2023-11-19T01:34:39;4.63;;;2.47;;
76155;SDS011;64906;51.290;7.348;2023-11-19T01:37:05;4.40;;;2.40;;
76155;SDS011;64906;51.290;7.348;2023-11-19T01:39:31;4.73;;;2.63;;
76155;SDS011;64906;51.290;7.348;2023-11-19T01:41:56;4.60;;;2.50;;
76155;SDS011;64906;51.290;7.348;2023-11-19T01:44:21;4.40;;;2.27;;
76155;SDS011;64906;51.290;7.348;2023-11-19T01:46:46;4.77;;;2.77;;
76155;SDS011;64906;51.290;7.348;2023-11-19T01:49:14;4.32;;;2.30;;
76155;SDS011;64906;51.290;7.348;2023-11-19T01:51:40;4.15;;;2.25;;
76155;SDS011;64906;51.290;7.348;2023-11-19T01:54:07;4.60;;;2.25;;
76155;SDS011;64906;51.290;7.348;2023-11-19T01:56:33;4.75;;;2.50;;
76155;SDS011;64906;51.290;7.348;2023-11-19T01:58:58;4.47;;;2.33;;
76155;SDS011;64906;51.290;7.348;2023-11-19T02:01:24;4.00;;;2.30;;
76155;SDS011;64906;51.290;7.348;2023-11-19T02:03:49;4.93;;;2.90;;
76155;SDS011;64906;51.290;7.348;2023-11-19T02:06:16;3.92;;;2.10;;
76155;SDS011;64906;51.290;7.348;2023-11-19T02:08:42;4.28;;;2.05;;
76155;SDS011;64906;51.290;7.348;2023-11-19T02:11:08;4.55;;;2.35;;
76155;SDS011;64906;51.290;7.348;2023-11-19T02:13:34;4.45;;;2.30;;
76155;SDS011;64906;51.290;7.348;2023-11-19T02:16:01;4.15;;;2.22;;
76155;SDS011;64906;51.290;7.348;2023-11-19T02:18:27;4.53;;;2.40;;
76155;SDS011;64906;51.290;7.348;2023-11-19T02:20:56;4.07;;;2.17;;
76155;SDS011;64906;51.290;7.348;2023-11-19T02:23:22;4.45;;;2.00;;
76155;SDS011;64906;51.290;7.348;2023-11-19T02:26:00;4.10;;;2.13;;
76155;SDS011;64906;51.290;7.348;2023-11-19T02:28:28;4.10;;;2.22;;
76155;SDS011;64906;51.290;7.348;2023-11-19T02:30:53;3.85;;;2.03;;
76155;SDS011;64906;51.290;7.348;2023-11-19T02:33:19;3.77;;;1.80;;
76155;SDS011;64906;51.290;7.348;2023-11-19T02:35:44;4.03;;;2.07;;
76155;SDS011;64906;51.290;7.348;2023-11-19T02:38:09;4.53;;;2.10;;
76155;SDS011;64906;51.290;7.348;2023-11-19T02:40:34;4.47;;;2.30;;
76155;SDS011;64906;51.290;7.348;2023-11-19T02:43:00;3.73;;;2.00;;
76155;SDS011;64906;51.290;7.348;2023-11-19T02:45:25;4.00;;;2.10;;
76155;SDS011;64906;51.290;7.348;2023-11-19T02:47:51;3.92;;;2.05;;
76155;SDS011;64906;51.290;7.348;2023-11-19T02:50:18;4.30;;;2.15;;
76155;SDS011;64906;51.290;7.348;2023-11-19T02:52:50;3.70;;;1.88;;
76155;SDS011;64906;51.290;7.348;2023-11-19T02:55:17;4.32;;;2.20;;
76155;SDS011;64906;51.290;7.348;2023-11-19T02:57:43;4.32;;;2.10;;
76155;SDS011;64906;51.290;7.348;2023-11-19T03:00:16;4.00;;;2.17;;
76155;SDS011;64906;51.290;7.348;2023-11-19T03:02:42;3.95;;;2.00;;
76155;SDS011;64906;51.290;7.348;2023-11-19T03:05:13;3.97;;;1.90;;
76155;SDS011;64906;51.290;7.348;2023-11-19T03:07:40;3.80;;;2.17;;
76155;SDS011;64906;51.290;7.348;2023-11-19T03:10:09;3.83;;;1.75;;
76155;SDS011;64906;51.290;7.348;2023-11-19T03:12:38;4.05;;;2.13;;
76155;SDS011;64906;51.290;7.348;2023-11-19T03:15:04;3.50;;;1.73;;
76155;SDS011;64906;51.290;7.348;2023-11-19T03:17:30;3.92;;;1.95;;
76155;SDS011;64906;51.290;7.348;2023-11-19T03:19:55;4.23;;;1.90;;
76155;SDS011;64906;51.290;7.348;2023-11-19T03:22:20;3.67;;;1.90;;
76155;SDS011;64906;51.290;7.348;2023-11-19T03:24:46;4.63;;;2.10;;
76155;SDS011;64906;51.290;7.348;2023-11-19T03:27:11;4.22;;;2.10;;
76155;SDS011;64906;51.290;7.348;2023-11-19T03:29:36;4.40;;;2.57;;
76155;SDS011;64906;51.290;7.348;2023-11-19T03:32:03;3.92;;;1.88;;
76155;SDS011;64906;51.290;7.348;2023-11-19T03:34:29;3.47;;;1.80;;
76155;SDS011;64906;51.290;7.348;2023-11-19T03:36:54;4.00;;;2.00;;
76155;SDS011;64906;51.290;7.348;2023-11-19T03:39:20;3.83;;;2.03;;
76155;SDS011;64906;51.290;7.348;2023-11-19T03:41:46;3.90;;;1.90;;
76155;SDS011;64906;51.290;7.348;2023-11-19T03:44:12;3.67;;;1.80;;
76155;SDS011;64906;51.290;7.348;2023-11-19T03:46:37;4.10;;;2.20;;
76155;SDS011;64906;51.290;7.348;2023-11-19T03:49:02;3.90;;;1.73;;
76155;SDS011;64906;51.290;7.348;2023-11-19T03:51:29;4.65;;;1.88;;
76155;SDS011;64906;51.290;7.348;2023-11-19T03:53:54;4.20;;;2.00;;
76155;SDS011;64906;51.290;7.348;2023-11-19T03:56:19;3.67;;;1.63;;
76155;SDS011;64906;51.290;7.348;2023-11-19T03:58:46;4.13;;;2.05;;
76155;SDS011;64906;51.290;7.348;2023-11-19T04:01:11;3.87;;;1.70;;
76155;SDS011;64906;51.290;7.348;2023-11-19T04:03:40;4.25;;;2.03;;
76155;SDS011;64906;51.290;7.348;2023-11-19T04:06:05;4.10;;;1.67;;
76155;SDS011;64906;51.290;7.348;2023-11-19T04:08:31;4.43;;;1.83;;
76155;SDS011;64906;51.290;7.348;2023-11-19T04:10:56;3.53;;;1.77;;
76155;SDS011;64906;51.290;7.348;2023-11-19T04:13:21;3.63;;;1.80;;
76155;SDS011;64906;51.290;7.348;2023-11-19T04:15:47;3.65;;;1.90;;
76155;SDS011;64906;51.290;7.348;2023-11-19T04:18:13;3.95;;;1.77;;
76155;SDS011;64906;51.290;7.348;2023-11-19T04:20:38;3.67;;;1.80;;
76155;SDS011;64906;51.290;7.348;2023-11-19T04:23:03;4.13;;;1.90;;
76155;SDS011;64906;51.290;7.348;2023-11-19T04:25:29;3.67;;;1.67;;
76155;SDS011;64906;51.290;7.348;2023-11-19T04:27:54;4.22;;;1.88;;
76155;SDS011;64906;51.290;7.348;2023-11-19T04:30:19;3.43;;;1.70;;
76155;SDS011;64906;51.290;7.348;2023-11-19T04:32:45;3.65;;;1.60;;
76155;SDS011;64906;51.290;7.348;2023-11-19T04:35:10;3.80;;;2.00;;
76155;SDS011;64906;51.290;7.348;2023-11-19T04:37:36;3.30;;;1.57;;
76155;SDS011;64906;51.290;7.348;2023-11-19T04:40:02;3.65;;;1.50;;
76155;SDS011;64906;51.290;7.348;2023-11-19T04:42:27;3.85;;;1.75;;
76155;SDS011;64906;51.290;7.348;2023-11-19T04:44:53;4.60;;;1.80;;
76155;SDS011;64906;51.290;7.348;2023-11-19T04:47:18;3.43;;;1.40;;
76155;SDS011;64906;51.290;7.348;2023-11-19T04:49:43;3.50;;;1.70;;
76155;SDS011;64906;51.290;7.348;2023-11-19T04:52:09;3.70;;;1.70;;
76155;SDS011;64906;51.290;7.348;2023-11-19T04:54:34;4.40;;;1.67;;
76155;SDS011;64906;51.290;7.348;2023-11-19T04:56:59;3.40;;;1.50;;
76155;SDS011;64906;51.290;7.348;2023-11-19T04:59:25;3.78;;;1.80;;
76155;SDS011;64906;51.290;7.348;2023-11-19T05:01:50;3.63;;;1.90;;
76155;SDS011;64906;51.290;7.348;2023-11-19T05:04:15;3.67;;;1.60;;
76155;SDS011;64906;51.290;7.348;2023-11-19T05:06:41;3.85;;;1.58;;
76155;SDS011;64906;51.290;7.348;2023-11-19T05:09:06;3.83;;;1.90;;
76155;SDS011;64906;51.290;7.348;2023-11-19T05:11:34;4.30;;;1.70;;
76155;SDS011;64906;51.290;7.348;2023-11-19T05:14:00;4.28;;;1.60;;
76155;SDS011;64906;51.290;7.348;2023-11-19T05:16:29;3.70;;;1.65;;
76155;SDS011;64906;51.290;7.348;2023-11-19T05:18:54;4.70;;;1.73;;
76155;SDS011;64906;51.290;7.348;2023-11-19T05:21:19;3.80;;;1.53;;
76155;SDS011;64906;51.290;7.348;2023-11-19T05:23:45;3.97;;;1.77;;
76155;SDS011;64906;51.290;7.348;2023-11-19T05:26:17;3.60;;;1.65;;
76155;SDS011;64906;51.290;7.348;2023-11-19T05:28:43;3.70;;;1.42;;
76155;SDS011;64906;51.290;7.348;2023-11-19T05:31:08;3.67;;;1.67;;
76155;SDS011;64906;51.290;7.348;2023-11-19T05:33:34;4.23;;;1.90;;
76155;SDS011;64906;51.290;7.348;2023-11-19T05:35:59;3.77;;;1.50;;
76155;SDS011;64906;51.290;7.348;2023-11-19T05:38:24;3.25;;;1.45;;
76155;SDS011;64906;51.290;7.348;2023-11-19T05:40:50;3.30;;;1.50;;
76155;SDS011;64906;51.290;7.348;2023-11-19T05:43:15;3.30;;;1.40;;
76155;SDS011;64906;51.290;7.348;2023-11-19T05:45:41;3.85;;;1.60;;
76155;SDS011;64906;51.290;7.348;2023-11-19T05:48:07;3.80;;;1.50;;
76155;SDS011;64906;51.290;7.348;2023-11-19T05:50:34;4.63;;;1.80;;
76155;SDS011;64906;51.290;7.348;2023-11-19T05:52:59;4.33;;;1.63;;
76155;SDS011;64906;51.290;7.348;2023-11-19T05:55:26;4.00;;;1.73;;
76155;SDS011;64906;51.290;7.348;2023-11-19T05:57:53;3.70;;;1.60;;
76155;SDS011;64906;51.290;7.348;2023-11-19T06:00:18;3.37;;;1.50;;
76155;SDS011;64906;51.290;7.348;2023-11-19T06:02:43;3.13;;;1.33;;
76155;SDS011;64906;51.290;7.348;2023-11-19T06:05:08;3.73;;;1.70;;
76155;SDS011;64906;51.290;7.348;2023-11-19T06:07:34;3.25;;;1.30;;
76155;SDS011;64906;51.290;7.348;2023-11-19T06:10:01;3.40;;;1.50;;
76155;SDS011;64906;51.290;7.348;2023-11-19T06:12:28;3.35;;;1.45;;
76155;SDS011;64906;51.290;7.348;2023-11-19T06:14:53;3.95;;;1.60;;
76155;SDS011;64906;51.290;7.348;2023-11-19T06:17:19;3.97;;;1.33;;
76155;SDS011;64906;51.290;7.348;2023-11-19T06:19:44;3.50;;;1.60;;
76155;SDS011;64906;51.290;7.348;2023-11-19T06:22:10;3.45;;;1.50;;
76155;SDS011;64906;51.290;7.348;2023-11-19T06:24:36;3.10;;;1.30;;
76155;SDS011;64906;51.290;7.348;2023-11-19T06:27:01;3.40;;;1.58;;
76155;SDS011;64906;51.290;7.348;2023-11-19T06:29:27;4.22;;;1.58;;
76155;SDS011;64906;51.290;7.348;2023-11-19T06:31:52;4.97;;;1.53;;
76155;SDS011;64906;51.290;7.348;2023-11-19T06:34:17;3.38;;;1.67;;
76155;SDS011;64906;51.290;7.348;2023-11-19T06:36:43;3.75;;;1.55;;
76155;SDS011;64906;51.290;7.348;2023-11-19T06:39:08;4.60;;;1.65;;
76155;SDS011;64906;51.290;7.348;2023-11-19T06:41:34;3.35;;;1.40;;
76155;SDS011;64906;51.290;7.348;2023-11-19T06:43:59;3.40;;;1.70;;
76155;SDS011;64906;51.290;7.348;2023-11-19T06:46:24;4.37;;;1.60;;
76155;SDS011;64906;51.290;7.348;2023-11-19T06:48:50;4.90;;;1.20;;
76155;SDS011;64906;51.290;7.348;2023-11-19T06:51:15;3.70;;;1.27;;
76155;SDS011;64906;51.290;7.348;2023-11-19T06:53:42;3.33;;;1.40;;
76155;SDS011;64906;51.290;7.348;2023-11-19T06:56:21;3.50;;;1.55;;
76155;SDS011;64906;51.290;7.348;2023-11-19T06:58:48;4.28;;;1.60;;
76155;SDS011;64906;51.290;7.348;2023-11-19T07:01:17;3.53;;;1.30;;
76155;SDS011;64906;51.290;7.348;2023-11-19T07:03:46;3.38;;;1.23;;
76155;SDS011;64906;51.290;7.348;2023-11-19T07:06:11;3.13;;;1.13;;
76155;SDS011;64906;51.290;7.348;2023-11-19T07:08:42;4.70;;;1.38;;
76155;SDS011;64906;51.290;7.348;2023-11-19T07:11:12;3.53;;;1.50;;
76155;SDS011;64906;51.290;7.348;2023-11-19T07:13:39;3.33;;;1.30;;
76155;SDS011;64906;51.290;7.348;2023-11-19T07:16:04;3.70;;;1.25;;
76155;SDS011;64906;51.290;7.348;2023-11-19T07:18:30;3.25;;;1.30;;
76155;SDS011;64906;51.290;7.348;2023-11-19T07:20:56;4.05;;;1.50;;
76155;SDS011;64906;51.290;7.348;2023-11-19T07:23:22;3.85;;;1.45;;
76155;SDS011;64906;51.290;7.348;2023-11-19T07:25:47;4.33;;;1.60;;
76155;SDS011;64906;51.290;7.348;2023-11-19T07:28:15;4.07;;;1.30;;
76155;SDS011;64906;51.290;7.348;2023-11-19T07:30:41;3.33;;;1.33;;
76155;SDS011;64906;51.290;7.348;2023-11-19T07:33:07;3.20;;;1.13;;
76155;SDS011;64906;51.290;7.348;2023-11-19T07:35:33;4.22;;;1.40;;
76155;SDS011;64906;51.290;7.348;2023-11-19T07:37:58;4.47;;;1.67;;
76155;SDS011;64906;51.290;7.348;2023-11-19T07:40:24;3.85;;;1.50;;
76155;SDS011;64906;51.290;7.348;2023-11-19T07:42:49;3.95;;;1.60;;
76155;SDS011;64906;51.290;7.348;2023-11-19T07:45:15;3.80;;;1.50;;
76155;SDS011;64906;51.290;7.348;2023-11-19T07:47:42;4.25;;;1.60;;
76155;SDS011;64906;51.290;7.348;2023-11-19T07:50:11;3.55;;;1.40;;
76155;SDS011;64906;51.290;7.348;2023-11-19T07:52:39;3.67;;;1.25;;
76155;SDS011;64906;51.290;7.348;2023-11-19T07:55:04;5.25;;;1.60;;
76155;SDS011;64906;51.290;7.348;2023-11-19T07:57:30;3.70;;;1.30;;
76155;SDS011;64906;51.290;7.348;2023-11-19T07:59:56;3.90;;;1.55;;
76155;SDS011;64906;51.290;7.348;2023-11-19T08:02:22;3.42;;;1.42;;
76155;SDS011;64906;51.290;7.348;2023-11-19T08:04:48;3.42;;;1.33;;
76155;SDS011;64906;51.290;7.348;2023-11-19T08:07:16;3.38;;;1.38;;
76155;SDS011;64906;51.290;7.348;2023-11-19T08:09:42;2.90;;;1.08;;
76155;SDS011;64906;51.290;7.348;2023-11-19T08:12:08;3.60;;;1.13;;
76155;SDS011;64906;51.290;7.348;2023-11-19T08:14:33;3.95;;;1.30;;
76155;SDS011;64906;51.290;7.348;2023-11-19T08:16:59;3.65;;;1.30;;
76155;SDS011;64906;51.290;7.348;2023-11-19T08:19:25;3.50;;;1.45;;
76155;SDS011;64906;51.290;7.348;2023-11-19T08:21:50;4.33;;;1.33;;
76155;SDS011;64906;51.290;7.348;2023-11-19T08:24:15;3.60;;;1.30;;
76155;SDS011;64906;51.290;7.348;2023-11-19T08:26:40;3.60;;;1.37;;
76155;SDS011;64906;51.290;7.348;2023-11-19T08:29:06;4.38;;;1.23;;
76155;SDS011;64906;51.290;7.348;2023-11-19T08:31:32;4.50;;;1.50;;
76155;SDS011;64906;51.290;7.348;2023-11-19T08:33:57;3.47;;;1.40;;
76155;SDS011;64906;51.290;7.348;2023-11-19T08:36:22;3.33;;;1.10;;
76155;SDS011;64906;51.290;7.348;2023-11-19T08:38:47;3.30;;;1.00;;
76155;SDS011;64906;51.290;7.348;2023-11-19T08:41:13;4.20;;;1.40;;
76155;SDS011;64906;51.290;7.348;2023-11-19T08:43:38;3.50;;;1.23;;
76155;SDS011;64906;51.290;7.348;2023-11-19T08:46:09;4.85;;;1.40;;
76155;SDS011;64906;51.290;7.348;2023-11-19T08:48:34;3.15;;;1.08;;
76155;SDS011;64906;51.290;7.348;2023-11-19T08:50:59;3.60;;;1.50;;
76155;SDS011;64906;51.290;7.348;2023-11-19T08:53:25;3.57;;;1.23;;
76155;SDS011;64906;51.290;7.348;2023-11-19T08:55:50;4.10;;;1.40;;
76155;SDS011;64906;51.290;7.348;2023-11-19T08:58:16;3.35;;;1.33;;
76155;SDS011;64906;51.290;7.348;2023-11-19T09:00:41;3.20;;;1.20;;
76155;SDS011;64906;51.290;7.348;2023-11-19T09:03:07;4.50;;;1.60;;
76155;SDS011;64906;51.290;7.348;2023-11-19T09:05:34;3.83;;;1.17;;
76155;SDS011;64906;51.290;7.348;2023-11-19T09:08:01;4.05;;;1.40;;
76155;SDS011;64906;51.290;7.348;2023-11-19T09:10:33;5.45;;;1.30;;
76155;SDS011;64906;51.290;7.348;2023-11-19T09:13:00;3.55;;;1.27;;
76155;SDS011;64906;51.290;7.348;2023-11-19T09:15:25;3.55;;;1.30;;
76155;SDS011;64906;51.290;7.348;2023-11-19T09:17:51;4.13;;;1.30;;
76155;SDS011;64906;51.290;7.348;2023-11-19T09:20:16;3.25;;;1.27;;
76155;SDS011;64906;51.290;7.348;2023-11-19T09:22:41;3.33;;;1.20;;
76155;SDS011;64906;51.290;7.348;2023-11-19T09:25:07;3.40;;;1.40;;
76155;SDS011;64906;51.290;7.348;2023-11-19T09:27:33;3.38;;;1.20;;
76155;SDS011;64906;51.290;7.348;2023-11-19T09:29:59;4.05;;;1.20;;
76155;SDS011;64906;51.290;7.348;2023-11-19T09:32:25;4.00;;;1.50;;
76155;SDS011;64906;51.290;7.348;2023-11-19T09:34:51;4.00;;;1.50;;
76155;SDS011;64906;51.290;7.348;2023-11-19T09:37:17;3.83;;;1.37;;
76155;SDS011;64906;51.290;7.348;2023-11-19T09:39:42;3.97;;;1.50;;
76155;SDS011;64906;51.290;7.348;2023-11-19T09:42:11;4.80;;;1.52;;
76155;SDS011;64906;51.290;7.348;2023-11-19T09:44:37;3.17;;;1.10;;
76155;SDS011;64906;51.290;7.348;2023-11-19T09:47:04;4.03;;;1.23;;
76155;SDS011;64906;51.290;7.348;2023-11-19T09:49:30;4.15;;;1.50;;
76155;SDS011;64906;51.290;7.348;2023-11-19T09:51:56;3.78;;;1.30;;
76155;SDS011;64906;51.290;7.348;2023-11-19T09:54:23;3.67;;;1.17;;
76155;SDS011;64906;51.290;7.348;2023-11-19T09:56:48;3.60;;;1.13;;
76155;SDS011;64906;51.290;7.348;2023-11-19T09:59:14;3.72;;;1.58;;
76155;SDS011;64906;51.290;7.348;2023-11-19T10:01:40;4.18;;;1.50;;
76155;SDS011;64906;51.290;7.348;2023-11-19T10:04:07;4.07;;;1.50;;
76155;SDS011;64906;51.290;7.348;2023-11-19T10:06:34;4.63;;;1.38;;
76155;SDS011;64906;51.290;7.348;2023-11-19T10:09:00;4.47;;;1.85;;
76155;SDS011;64906;51.290;7.348;2023-11-19T10:11:26;5.97;;;2.75;;
76155;SDS011;64906;51.290;7.348;2023-11-19T10:13:51;6.00;;;2.72;;
76155;SDS011;64906;51.290;7.348;2023-11-19T10:16:18;7.57;;;3.08;;
76155;SDS011;64906;51.290;7.348;2023-11-19T10:18:48;7.88;;;3.92;;
76155;SDS011;64906;51.290;7.348;2023-11-19T10:21:17;11.52;;;4.45;;
76155;SDS011;64906;51.290;7.348;2023-11-19T10:23:53;7.97;;;4.18;;
76155;SDS011;64906;51.290;7.348;2023-11-19T10:26:21;7.47;;;4.22;;
76155;SDS011;64906;51.290;7.348;2023-11-19T10:28:47;8.25;;;4.20;;
76155;SDS011;64906;51.290;7.348;2023-11-19T10:31:13;10.05;;;4.57;;
76155;SDS011;64906;51.290;7.348;2023-11-19T10:33:39;8.38;;;4.60;;
76155;SDS011;64906;51.290;7.348;2023-11-19T10:36:05;7.72;;;3.92;;
76155;SDS011;64906;51.290;7.348;2023-11-19T10:38:30;6.97;;;4.07;;
76155;SDS011;64906;51.290;7.348;2023-11-19T10:40:56;9.73;;;4.07;;
76155;SDS011;64906;51.290;7.348;2023-11-19T10:43:21;7.53;;;4.03;;
76155;SDS011;64906;51.290;7.348;2023-11-19T10:45:48;7.68;;;4.20;;
76155;SDS011;64906;51.290;7.348;2023-11-19T10:48:13;10.23;;;4.38;;
76155;SDS011;64906;51.290;7.348;2023-11-19T10:50:40;8.45;;;4.30;;
76155;SDS011;64906;51.290;7.348;2023-11-19T10:53:08;8.63;;;4.15;;
76155;SDS011;64906;51.290;7.348;2023-11-19T10:55:35;8.98;;;4.10;;
76155;SDS011;64906;51.290;7.348;2023-11-19T10:58:03;9.63;;;4.30;;
76155;SDS011;64906;51.290;7.348;2023-11-19T11:00:30;7.38;;;4.28;;
76155;SDS011;64906;51.290;7.348;2023-11-19T11:03:02;8.02;;;4.13;;
76155;SDS011;64906;51.290;7.348;2023-11-19T11:05:35;8.10;;;4.30;;
76155;SDS011;64906;51.290;7.348;2023-11-19T11:08:03;9.32;;;4.63;;
76155;SDS011;64906;51.290;7.348;2023-11-19T11:10:31;7.40;;;4.28;;
76155;SDS011;64906;51.290;7.348;2023-11-19T11:13:01;9.05;;;4.88;;
76155;SDS011;64906;51.290;7.348;2023-11-19T11:15:28;8.70;;;4.60;;
76155;SDS011;64906;51.290;7.348;2023-11-19T11:17:57;7.78;;;4.32;;
76155;SDS011;64906;51.290;7.348;2023-11-19T11:20:28;9.93;;;4.38;;
76155;SDS011;64906;51.290;7.348;2023-11-19T11:34:38;9.23;;;4.78;;
76155;SDS011;64906;51.290;7.348;2023-11-19T11:39:57;7.85;;;4.47;;
76155;SDS011;64906;51.290;7.348;2023-11-19T11:44:57;8.43;;;4.93;;
76155;SDS011;64906;51.290;7.348;2023-11-19T11:50:09;10.13;;;4.78;;
76155;SDS011;64906;51.290;7.348;2023-11-19T11:58:20;9.15;;;5.15;;
76155;SDS011;64906;51.290;7.348;2023-11-19T12:00:57;10.38;;;5.32;;
76155;SDS011;64906;51.290;7.348;2023-11-19T12:03:22;10.65;;;4.80;;
76155;SDS011;64906;51.290;7.348;2023-11-19T12:05:48;9.70;;;5.47;;
76155;SDS011;64906;51.290;7.348;2023-11-19T12:08:20;15.60;;;8.88;;
76155;SDS011;64906;51.290;7.348;2023-11-19T12:10:51;24.67;;;12.20;;
76155;SDS011;64906;51.290;7.348;2023-11-19T12:13:18;29.08;;;15.88;;
76155;SDS011;64906;51.290;7.348;2023-11-19T12:18:31;40.17;;;19.95;;
76155;SDS011;64906;51.290;7.348;2023-11-19T12:20:57;39.47;;;20.30;;
76155;SDS011;64906;51.290;7.348;2023-11-19T12:23:30;37.13;;;21.17;;
76155;SDS011;64906;51.290;7.348;2023-11-19T12:25:56;36.35;;;22.10;;
76155;SDS011;64906;51.290;7.348;2023-11-19T12:28:23;40.05;;;22.58;;
76155;SDS011;64906;51.290;7.348;2023-11-19T12:30:51;39.65;;;22.42;;
76155;SDS011;64906;51.290;7.348;2023-11-19T12:33:19;40.33;;;22.40;;
76155;SDS011;64906;51.290;7.348;2023-11-19T12:35:45;43.38;;;23.20;;
76155;SDS011;64906;51.290;7.348;2023-11-19T12:38:18;41.33;;;24.08;;
76155;SDS011;64906;51.290;7.348;2023-11-19T12:41:07;48.20;;;25.45;;
76155;SDS011;64906;51.290;7.348;2023-11-19T12:43:35;46.67;;;27.52;;
76155;SDS011;64906;51.290;7.348;2023-11-19T12:46:02;43.40;;;26.17;;
76155;SDS011;64906;51.290;7.348;2023-11-19T12:48:28;41.42;;;26.35;;
76155;SDS011;64906;51.290;7.348;2023-11-19T12:50:54;48.23;;;26.80;;
76155;SDS011;64906;51.290;7.348;2023-11-19T12:53:21;44.38;;;26.23;;
76155;SDS011;64906;51.290;7.348;2023-11-19T12:55:48;45.83;;;27.13;;
76155;SDS011;64906;51.290;7.348;2023-11-19T12:58:33;45.65;;;26.65;;
76155;SDS011;64906;51.290;7.348;2023-11-19T13:03:30;47.70;;;26.70;;
76155;SDS011;64906;51.290;7.348;2023-11-19T13:06:03;48.55;;;27.63;;
76155;SDS011;64906;51.290;7.348;2023-11-19T13:08:39;43.15;;;25.50;;
76155;SDS011;64906;51.290;7.348;2023-11-19T13:11:07;53.85;;;27.10;;
76155;SDS011;64906;51.290;7.348;2023-11-19T13:13:33;50.92;;;27.60;;
76155;SDS011;64906;51.290;7.348;2023-11-19T13:16:18;47.67;;;27.25;;
76155;SDS011;64906;51.290;7.348;2023-11-19T13:18:44;45.60;;;28.05;;
76155;SDS011;64906;51.290;7.348;2023-11-19T13:21:09;46.63;;;27.23;;
76155;SDS011;64906;51.290;7.348;2023-11-19T13:23:34;49.20;;;27.50;;
76155;SDS011;64906;51.290;7.348;2023-11-19T13:26:00;51.15;;;28.70;;
76155;SDS011;64906;51.290;7.348;2023-11-19T13:28:26;51.08;;;28.42;;
76155;SDS011;64906;51.290;7.348;2023-11-19T13:30:52;49.47;;;28.58;;
76155;SDS011;64906;51.290;7.348;2023-11-19T13:33:18;51.65;;;28.85;;
76155;SDS011;64906;51.290;7.348;2023-11-19T13:35:44;54.72;;;29.10;;
76155;SDS011;64906;51.290;7.348;2023-11-19T13:38:09;50.85;;;29.38;;
76155;SDS011;64906;51.290;7.348;2023-11-19T13:40:36;52.03;;;28.97;;
76155;SDS011;64906;51.290;7.348;2023-11-19T13:43:03;47.20;;;29.42;;
76155;SDS011;64906;51.290;7.348;2023-11-19T13:45:28;48.38;;;29.85;;
76155;SDS011;64906;51.290;7.348;2023-11-19T13:47:54;52.87;;;30.70;;
76155;SDS011;64906;51.290;7.348;2023-11-19T13:50:19;49.73;;;28.87;;
76155;SDS011;64906;51.290;7.348;2023-11-19T13:52:45;50.40;;;31.67;;
76155;SDS011;64906;51.290;7.348;2023-11-19T13:55:12;45.83;;;28.50;;
76155;SDS011;64906;51.290;7.348;2023-11-19T13:57:39;48.17;;;28.60;;
76155;SDS011;64906;51.290;7.348;2023-11-19T14:00:06;44.53;;;27.52;;
76155;SDS011;64906;51.290;7.348;2023-11-19T14:02:38;49.58;;;28.67;;
76155;SDS011;64906;51.290;7.348;2023-11-19T14:05:05;50.17;;;29.05;;
76155;SDS011;64906;51.290;7.348;2023-11-19T14:07:30;45.67;;;25.70;;
76155;SDS011;64906;51.290;7.348;2023-11-19T14:09:56;46.35;;;28.35;;
76155;SDS011;64906;51.290;7.348;2023-11-19T14:12:21;45.23;;;26.97;;
76155;SDS011;64906;51.290;7.348;2023-11-19T14:14:47;44.70;;;26.73;;
76155;SDS011;64906;51.290;7.348;2023-11-19T14:17:12;45.17;;;27.37;;
76155;SDS011;64906;51.290;7.348;2023-11-19T14:19:38;45.77;;;26.17;;
76155;SDS011;64906;51.290;7.348;2023-11-19T14:22:04;45.83;;;26.42;;
76155;SDS011;64906;51.290;7.348;2023-11-19T14:24:30;44.63;;;26.17;;
76155;SDS011;64906;51.290;7.348;2023-11-19T14:26:55;47.33;;;27.15;;
76155;SDS011;64906;51.290;7.348;2023-11-19T14:29:23;42.70;;;25.20;;
76155;SDS011;64906;51.290;7.348;2023-11-19T14:31:50;48.25;;;25.58;;
76155;SDS011;64906;51.290;7.348;2023-11-19T14:34:16;42.75;;;25.00;;
76155;SDS011;64906;51.290;7.348;2023-11-19T14:36:41;43.27;;;25.43;;
76155;SDS011;64906;51.290;7.348;2023-11-19T14:39:07;40.92;;;25.77;;
76155;SDS011;64906;51.290;7.348;2023-11-19T14:41:32;40.93;;;25.07;;
76155;SDS011;64906;51.290;7.348;2023-11-19T14:43:58;43.93;;;25.03;;
76155;SDS011;64906;51.290;7.348;2023-11-19T14:46:23;41.87;;;25.00;;
76155;SDS011;64906;51.290;7.348;2023-11-19T14:48:50;40.85;;;23.80;;
76155;SDS011;64906;51.290;7.348;2023-11-19T14:51:15;40.75;;;24.13;;
76155;SDS011;64906;51.290;7.348;2023-11-19T14:53:41;42.40;;;23.67;;
76155;SDS011;64906;51.290;7.348;2023-11-19T14:56:09;41.73;;;23.97;;
76155;SDS011;64906;51.290;7.348;2023-11-19T14:58:35;38.40;;;22.92;;
76155;SDS011;64906;51.290;7.348;2023-11-19T15:01:01;39.47;;;23.42;;
76155;SDS011;64906;51.290;7.348;2023-11-19T15:03:29;41.35;;;22.80;;
76155;SDS011;64906;51.290;7.348;2023-11-19T15:05:55;39.30;;;22.67;;
76155;SDS011;64906;51.290;7.348;2023-11-19T15:08:21;39.80;;;22.95;;
76155;SDS011;64906;51.290;7.348;2023-11-19T15:10:46;39.17;;;24.05;;